createdAt,value
2023-01-11T00:01:12.505Z,6.71
2023-01-11T00:03:40.368Z,6.74
2023-01-11T00:06:08.305Z,6.77
2023-01-11T00:08:36.520Z,6.68
2023-01-11T00:11:04.363Z,6.63
2023-01-11T00:13:33.264Z,6.62
2023-01-11T00:16:07.738Z,6.58
2023-01-11T00:18:36.888Z,6.54
2023-01-11T00:21:06.209Z,6.55
2023-01-11T00:23:38.270Z,6.59
2023-01-11T00:26:10.280Z,6.65
2023-01-11T00:28:38.164Z,6.63
2023-01-11T00:31:05.980Z,6.65
2023-01-11T00:33:33.919Z,6.72
2023-01-11T00:36:19.835Z,6.68
2023-01-11T00:38:51.515Z,6.68
2023-01-11T00:41:39.977Z,6.72
2023-01-11T00:44:29.553Z,6.81
2023-01-11T00:47:16.556Z,6.80
2023-01-11T00:49:44.853Z,6.78
2023-01-11T00:52:12.458Z,6.70
2023-01-11T00:54:42.156Z,6.71
2023-01-11T00:57:09.906Z,6.58
2023-01-11T00:59:41.203Z,6.55
2023-01-11T01:02:11.097Z,6.56
2023-01-11T01:04:39.799Z,6.55
2023-01-11T01:07:08.288Z,6.57
2023-01-11T01:09:36.151Z,6.63
2023-01-11T01:12:04.668Z,6.62
2023-01-11T01:14:33.534Z,6.65
2023-01-11T01:17:08.930Z,6.74
2023-01-11T01:19:38.974Z,6.70
2023-01-11T01:22:07.384Z,6.76
2023-01-11T01:24:35.028Z,6.77
2023-01-11T01:27:03.003Z,6.78
2023-01-11T01:29:30.447Z,6.74
2023-01-11T01:31:58.356Z,6.79
2023-01-11T01:34:25.980Z,6.76
2023-01-11T01:36:53.900Z,6.82
2023-01-11T01:39:21.500Z,6.84
2023-01-11T01:41:49.522Z,6.82
2023-01-11T01:44:53.076Z,6.77
2023-01-11T01:47:45.792Z,6.67
2023-01-11T01:50:36.374Z,6.68
2023-01-11T01:53:13.624Z,6.74
2023-01-11T01:55:52.150Z,6.73
2023-01-11T01:58:27.700Z,6.78
2023-01-11T02:00:55.343Z,6.79
2023-01-11T02:03:27.187Z,6.85
2023-01-11T02:05:55.035Z,6.84
2023-01-11T02:08:36.965Z,6.93
2023-01-11T02:11:27.792Z,6.95
2023-01-11T02:13:59.362Z,6.99
2023-01-11T02:16:27.187Z,6.97
2023-01-11T02:18:57.647Z,6.95
2023-01-11T02:22:15.871Z,6.96
2023-01-11T02:24:52.586Z,6.85
2023-01-11T02:27:57.272Z,6.86
2023-01-11T02:30:54.880Z,6.79
2023-01-11T02:33:47.588Z,6.74
2023-01-11T02:36:44.411Z,6.76
2023-01-11T02:39:47.119Z,6.76
2023-01-11T02:42:54.118Z,6.68
2023-01-11T02:45:33.273Z,6.63
2023-01-11T02:48:14.781Z,6.59
2023-01-11T02:51:24.498Z,6.59
2023-01-11T02:54:06.070Z,6.58
2023-01-11T02:56:44.901Z,6.59
2023-01-11T02:59:22.774Z,6.65
2023-01-11T03:01:55.884Z,6.70
2023-01-11T03:04:35.794Z,6.71
2023-01-11T03:07:47.630Z,6.69
2023-01-11T03:11:03.545Z,6.61
2023-01-11T03:14:20.464Z,6.62
2023-01-11T03:17:20.212Z,6.66
2023-01-11T03:19:52.538Z,6.70
2023-01-11T03:22:39.340Z,6.63
2023-01-11T03:25:31.050Z,6.69
2023-01-11T03:28:39.060Z,6.62
2023-01-11T03:31:18.374Z,6.65
2023-01-11T03:34:45.941Z,6.66
2023-01-11T03:37:30.915Z,6.63
2023-01-11T03:40:16.860Z,6.63
2023-01-11T03:43:07.637Z,6.64
2023-01-11T03:46:05.220Z,6.63
2023-01-11T03:49:04.138Z,6.67
2023-01-11T03:51:35.273Z,6.66
2023-01-11T03:54:08.143Z,6.67
2023-01-11T03:56:56.625Z,6.65
2023-01-11T03:59:24.459Z,6.64
2023-01-11T04:01:55.385Z,6.66
2023-01-11T04:04:23.943Z,6.53
2023-01-11T04:06:51.925Z,6.58
2023-01-11T04:09:19.644Z,6.57
2023-01-11T04:11:47.669Z,6.58
2023-01-11T04:14:15.269Z,6.59
2023-01-11T04:16:43.176Z,6.61
2023-01-11T04:19:10.768Z,6.60
2023-01-11T04:21:38.597Z,6.63
2023-01-11T04:24:06.533Z,6.67
2023-01-11T04:26:34.773Z,6.74
2023-01-11T04:29:02.311Z,6.97
2023-01-11T04:31:30.198Z,7.24
2023-01-11T04:33:57.903Z,7.41
2023-01-11T04:36:26.569Z,7.49
2023-01-11T04:38:54.216Z,7.60
2023-01-11T04:41:40.713Z,7.67
2023-01-11T04:44:08.460Z,7.63
2023-01-11T04:46:36.581Z,7.47
2023-01-11T04:49:04.161Z,7.28
2023-01-11T04:51:32.030Z,7.19
2023-01-11T04:53:59.540Z,7.13
2023-01-11T04:56:27.485Z,7.05
2023-01-11T04:58:56.423Z,7.03
2023-01-11T05:01:24.376Z,7.01
2023-01-11T05:03:52.176Z,7.03
2023-01-11T05:06:22.469Z,6.99
2023-01-11T05:08:50.236Z,6.99
2023-01-11T05:11:18.820Z,6.92
2023-01-11T05:13:46.716Z,6.88
2023-01-11T05:16:18.938Z,6.84
2023-01-11T05:18:56.145Z,6.83
2023-01-11T05:21:35.472Z,6.82
2023-01-11T05:24:06.441Z,6.80
2023-01-11T05:26:37.757Z,6.78
2023-01-11T05:29:08.750Z,6.82
2023-01-11T05:31:38.671Z,6.79
2023-01-11T05:34:07.827Z,6.80
2023-01-11T05:36:36.380Z,6.75
2023-01-11T05:39:06.003Z,6.70
2023-01-11T05:41:34.438Z,6.69
2023-01-11T05:44:20.565Z,6.76
2023-01-11T05:46:48.684Z,6.79
2023-01-11T05:49:16.449Z,6.80
2023-01-11T05:51:44.571Z,6.79
2023-01-11T05:54:14.216Z,6.74
2023-01-11T05:56:45.204Z,6.77
2023-01-11T05:59:13.146Z,6.74
2023-01-11T06:01:41.120Z,6.83
2023-01-11T06:04:08.768Z,6.82
2023-01-11T06:06:36.866Z,6.79
2023-01-11T06:09:04.573Z,6.80
2023-01-11T06:11:32.447Z,6.83
2023-01-11T06:14:00.118Z,6.86
2023-01-11T06:16:28.178Z,6.84
2023-01-11T06:18:56.120Z,6.87
2023-01-11T06:21:25.169Z,6.91
2023-01-11T06:23:52.811Z,6.98
2023-01-11T06:26:23.076Z,6.99
2023-01-11T06:28:51.132Z,7.03
2023-01-11T06:31:19.612Z,7.03
2023-01-11T06:33:47.835Z,6.99
2023-01-11T06:36:16.586Z,7.01
2023-01-11T06:38:44.761Z,6.98
2023-01-11T06:41:13.562Z,7.01
2023-01-11T06:43:42.558Z,6.91
2023-01-11T06:46:15.816Z,6.91
2023-01-11T06:48:44.766Z,6.92
2023-01-11T06:51:14.210Z,6.93
2023-01-11T06:53:43.674Z,6.96
2023-01-11T06:56:16.783Z,6.95
2023-01-11T06:58:47.059Z,6.76
2023-01-11T07:01:16.691Z,6.64
2023-01-11T07:03:45.535Z,6.66
2023-01-11T07:06:14.203Z,6.65
2023-01-11T07:08:42.789Z,6.66
2023-01-11T07:11:10.912Z,6.70
2023-01-11T07:13:38.596Z,6.57
2023-01-11T07:16:07.109Z,6.59
2023-01-11T07:18:35.287Z,6.55
2023-01-11T07:21:03.916Z,6.55
2023-01-11T07:23:31.672Z,6.58
2023-01-11T07:25:59.938Z,6.63
2023-01-11T07:28:28.654Z,6.63
2023-01-11T07:30:59.805Z,6.69
2023-01-11T07:33:28.409Z,6.79
2023-01-11T07:35:58.048Z,6.90
2023-01-11T07:38:25.612Z,6.92
2023-01-11T07:40:53.609Z,6.89
2023-01-11T07:43:23.536Z,6.90
2023-01-11T07:45:53.353Z,6.87
2023-01-11T07:48:26.412Z,6.76
2023-01-11T07:50:55.154Z,6.70
2023-01-11T07:53:26.008Z,6.72
2023-01-11T07:55:57.261Z,6.74
2023-01-11T07:58:24.920Z,6.69
2023-01-11T08:00:52.842Z,6.65
2023-01-11T08:03:20.655Z,6.59
2023-01-11T08:05:52.792Z,6.57
2023-01-11T08:08:21.632Z,6.61
2023-01-11T08:11:12.729Z,6.66
2023-01-11T08:13:58.981Z,6.70
2023-01-11T08:16:27.548Z,6.73
2023-01-11T08:18:55.083Z,6.70
2023-01-11T08:21:22.943Z,6.73
2023-01-11T08:23:53.612Z,6.82
2023-01-11T08:26:24.167Z,6.80
2023-01-11T08:28:52.997Z,6.80
2023-01-11T08:31:22.240Z,6.71
2023-01-11T08:33:50.034Z,6.60
2023-01-11T08:36:17.921Z,6.63
2023-01-11T08:38:45.558Z,6.76
2023-01-11T08:41:14.877Z,6.78
2023-01-11T08:44:01.095Z,6.83
2023-01-11T08:46:29.318Z,6.89
2023-01-11T08:48:57.617Z,6.89
2023-01-11T08:51:25.627Z,6.92
2023-01-11T08:53:53.880Z,7.00
2023-01-11T08:56:21.914Z,7.04
2023-01-11T08:58:49.478Z,6.98
2023-01-11T09:01:17.939Z,6.96
2023-01-11T09:03:45.704Z,6.99
2023-01-11T09:06:13.619Z,7.01
2023-01-11T09:08:42.810Z,7.05
2023-01-11T09:11:30.556Z,7.08
2023-01-11T09:13:58.440Z,7.06
2023-01-11T09:16:26.411Z,6.97
2023-01-11T09:18:55.675Z,7.00
2023-01-11T09:21:23.932Z,7.04
2023-01-11T09:23:51.856Z,7.10
2023-01-11T09:26:19.770Z,7.12
2023-01-11T09:28:47.359Z,7.17
2023-01-11T09:31:15.912Z,7.16
2023-01-11T09:33:43.540Z,7.20
2023-01-11T09:36:12.135Z,7.18
2023-01-11T09:38:39.979Z,7.15
2023-01-11T09:42:06.294Z,7.18
2023-01-11T09:44:36.986Z,7.14
2023-01-11T09:47:45.264Z,7.02
2023-01-11T09:50:21.907Z,6.94
2023-01-11T09:53:08.330Z,6.81
2023-01-11T09:55:40.969Z,6.80
2023-01-11T09:58:38.219Z,6.81
2023-01-11T10:01:31.532Z,6.86
2023-01-11T10:04:41.827Z,6.96
2023-01-11T10:07:43.578Z,6.92
2023-01-11T10:18:28.985Z,7.13
2023-01-11T10:18:33.347Z,7.03
2023-01-11T10:20:34.769Z,7.11
2023-01-11T10:23:16.466Z,7.16
2023-01-11T10:25:54.496Z,7.11
2023-01-11T10:28:31.380Z,7.16
2023-01-11T10:30:58.920Z,7.23
2023-01-11T10:34:06.188Z,7.16
2023-01-11T10:37:12.838Z,7.08
2023-01-11T10:40:01.137Z,7.05
2023-01-11T10:42:33.774Z,7.08
2023-01-11T10:45:17.410Z,7.06
2023-01-11T10:48:04.198Z,7.09
2023-01-11T10:51:17.031Z,7.15
2023-01-11T10:54:33.393Z,7.07
2023-01-11T10:57:16.893Z,7.05
2023-01-11T11:00:05.060Z,7.08
2023-01-11T11:03:28.414Z,7.16
2023-01-11T11:06:05.161Z,7.16
2023-01-11T11:09:03.547Z,7.16
2023-01-11T11:12:56.378Z,7.14
2023-01-11T11:16:03.152Z,7.20
2023-01-11T11:18:30.993Z,7.14
2023-01-11T11:21:30.033Z,7.11
2023-01-11T11:24:37.536Z,7.15
2023-01-11T11:27:27.015Z,7.17
2023-01-11T11:29:57.376Z,7.27
2023-01-11T11:32:36.906Z,7.19
2023-01-11T11:35:08.101Z,7.16
2023-01-11T11:37:42.189Z,6.99
2023-01-11T11:40:28.319Z,6.91
2023-01-11T11:43:19.942Z,6.89
2023-01-11T11:45:58.838Z,6.95
2023-01-11T11:48:31.355Z,6.99
2023-01-11T11:51:04.500Z,6.99
2023-01-11T11:53:53.369Z,7.01
2023-01-11T11:56:43.987Z,7.06
2023-01-11T11:59:19.770Z,7.14
2023-01-11T12:01:56.821Z,7.18
2023-01-11T12:04:47.489Z,7.20
2023-01-11T12:07:22.194Z,7.21
2023-01-11T12:10:03.676Z,7.27
2023-01-11T12:12:35.599Z,7.30
2023-01-11T12:15:16.601Z,7.37
2023-01-11T12:17:44.413Z,7.47
2023-01-11T12:20:30.580Z,7.44
2023-01-11T12:23:24.460Z,7.40
2023-01-11T12:26:26.896Z,7.43
2023-01-11T12:29:12.820Z,7.33
2023-01-11T12:32:25.654Z,7.29
2023-01-11T12:35:22.473Z,7.28
2023-01-11T12:38:08.159Z,7.29
2023-01-11T12:41:43.770Z,7.34
2023-01-11T12:44:18.776Z,7.32
2023-01-11T12:47:44.621Z,7.17
2023-01-11T12:50:25.141Z,7.16
2023-01-11T12:53:30.535Z,7.24
2023-01-11T12:56:43.815Z,7.15
2023-01-11T12:59:43.773Z,7.16
2023-01-11T13:02:11.526Z,7.17
2023-01-11T13:05:23.586Z,7.19
2023-01-11T13:08:15.070Z,7.09
2023-01-11T13:11:03.016Z,7.11
2023-01-11T13:13:58.206Z,7.13
2023-01-11T13:16:38.891Z,7.13
2023-01-11T13:19:38.641Z,7.05
2023-01-11T13:22:17.539Z,6.91
2023-01-11T13:24:49.696Z,6.89
2023-01-11T13:27:23.033Z,6.90
2023-01-11T13:30:00.043Z,6.96
2023-01-11T13:32:37.678Z,6.94
2023-01-11T13:35:24.732Z,6.92
2023-01-11T13:38:24.229Z,6.88
2023-01-11T13:40:58.573Z,6.76
2023-01-11T13:43:48.135Z,6.68
2023-01-11T13:46:53.938Z,6.48
2023-01-11T13:49:59.678Z,6.53
2023-01-11T13:52:53.042Z,6.56
2023-01-11T13:55:30.614Z,6.63
2023-01-11T13:58:25.541Z,6.65
2023-01-11T14:01:07.773Z,6.61
2023-01-11T14:04:01.108Z,6.53
2023-01-11T14:06:44.892Z,6.55
2023-01-11T14:09:37.108Z,6.62
2023-01-11T14:12:32.364Z,6.69
2023-01-11T14:15:32.882Z,6.65
2023-01-11T14:18:38.410Z,6.62
2023-01-11T14:21:26.517Z,6.55
2023-01-11T14:23:55.408Z,6.61
2023-01-11T14:26:49.432Z,6.57
2023-01-11T14:29:43.356Z,6.63
2023-01-11T14:32:45.684Z,6.44
2023-01-11T14:35:40.780Z,6.34
2023-01-11T14:38:42.439Z,6.32
2023-01-11T14:41:43.908Z,6.29
2023-01-11T14:44:26.907Z,6.35
2023-01-11T14:47:35.647Z,6.43
2023-01-11T14:50:45.148Z,6.51
2023-01-11T14:53:21.618Z,6.37
2023-01-11T14:55:49.830Z,6.28
2023-01-11T14:58:26.017Z,6.13
2023-01-11T15:00:56.734Z,6.14
2023-01-11T15:03:24.323Z,6.15
2023-01-11T15:05:58.236Z,6.11
2023-01-11T15:08:46.043Z,6.04
2023-01-11T15:11:36.075Z,6.08
2023-01-11T15:14:25.146Z,6.12
2023-01-11T15:17:17.165Z,5.98
2023-01-11T15:19:45.668Z,6.01
2023-01-11T15:22:30.962Z,6.08
2023-01-11T15:25:27.721Z,6.24
2023-01-11T15:27:56.923Z,6.35
2023-01-11T15:30:30.442Z,6.37
2023-01-11T15:33:17.325Z,6.34
2023-01-11T15:35:57.095Z,6.43
2023-01-11T15:38:59.051Z,6.24
2023-01-11T15:42:14.963Z,6.13
2023-01-11T15:44:57.866Z,6.12
2023-01-11T15:47:49.777Z,6.19
2023-01-11T15:50:54.903Z,6.24
2023-01-11T15:53:55.511Z,6.23
2023-01-11T15:56:47.499Z,6.27
2023-01-11T15:59:57.556Z,6.30
2023-01-11T16:03:06.477Z,6.23
2023-01-11T16:05:45.118Z,6.26
2023-01-11T16:08:44.696Z,6.26
2023-01-11T16:12:20.936Z,6.20
2023-01-11T16:15:35.662Z,5.97
2023-01-11T16:18:22.838Z,5.94
2023-01-11T16:21:29.156Z,6.04
2023-01-11T16:23:57.392Z,5.99
2023-01-11T16:26:29.003Z,5.91
2023-01-11T16:28:59.773Z,5.91
2023-01-11T16:31:59.657Z,6.07
2023-01-11T16:34:30.453Z,6.02
2023-01-11T16:36:59.430Z,6.04
2023-01-11T16:39:30.343Z,6.15
2023-01-11T16:42:05.902Z,6.22
2023-01-11T16:44:55.875Z,6.25
2023-01-11T16:47:23.852Z,6.31
2023-01-11T16:50:24.695Z,6.14
2023-01-11T16:52:54.889Z,6.06
2023-01-11T16:55:40.179Z,6.04
2023-01-11T16:58:29.235Z,5.99
2023-01-11T17:01:14.375Z,5.93
2023-01-11T17:03:52.559Z,5.81
2023-01-11T17:06:24.021Z,5.71
2023-01-11T17:09:00.139Z,5.81
2023-01-11T17:16:03.186Z,5.77
2023-01-11T17:18:32.082Z,5.66
2023-01-11T17:21:00.159Z,5.73
2023-01-11T17:23:28.284Z,5.71
2023-01-11T17:25:57.993Z,5.72
2023-01-11T17:28:26.375Z,5.78
2023-01-11T17:30:54.699Z,5.84
2023-01-11T17:33:32.571Z,5.83
2023-01-11T17:36:02.112Z,5.71
2023-01-11T17:38:31.387Z,5.80
2023-01-11T17:41:01.382Z,5.86
2023-01-11T17:43:48.888Z,5.87
2023-01-11T17:46:29.040Z,5.77
2023-01-11T17:48:59.828Z,5.76
2023-01-11T17:51:31.590Z,5.68
2023-01-11T17:53:59.496Z,5.61
2023-01-11T17:56:39.297Z,5.70
2023-01-11T17:59:26.399Z,5.76
2023-01-11T18:02:20.786Z,5.78
2023-01-11T18:04:59.797Z,5.77
2023-01-11T18:07:28.112Z,5.80
2023-01-11T18:10:02.265Z,5.86
2023-01-11T18:12:34.155Z,5.94
2023-01-11T18:15:06.481Z,5.96
2023-01-11T18:17:44.648Z,5.85
2023-01-11T18:20:15.505Z,5.82
2023-01-11T18:23:08.687Z,5.84
2023-01-11T18:25:46.116Z,5.84
2023-01-11T18:28:28.481Z,5.96
2023-01-11T18:31:02.045Z,5.94
2023-01-11T18:33:34.159Z,5.96
2023-01-11T18:36:04.351Z,6.06
2023-01-11T18:38:36.812Z,6.00
2023-01-11T18:41:44.485Z,6.10
2023-01-11T18:44:12.759Z,6.01
2023-01-11T18:46:40.270Z,6.06
2023-01-11T18:49:11.355Z,6.07
2023-01-11T18:51:47.349Z,6.13
2023-01-11T18:54:19.668Z,6.13
2023-01-11T18:56:47.281Z,6.18
2023-01-11T18:59:15.196Z,6.24
2023-01-11T19:01:58.655Z,6.33
2023-01-11T19:04:30.851Z,6.27
2023-01-11T19:07:15.115Z,6.23
2023-01-11T19:09:45.130Z,6.26
2023-01-11T19:12:13.581Z,6.30
2023-01-11T19:14:45.302Z,6.32
2023-01-11T19:17:16.598Z,6.35
2023-01-11T19:19:45.349Z,6.40
2023-01-11T19:22:18.814Z,6.51
2023-01-11T19:24:46.789Z,6.58
2023-01-11T19:27:14.530Z,6.64
2023-01-11T19:29:42.425Z,6.66
2023-01-11T19:32:10.137Z,6.68
2023-01-11T19:34:39.954Z,6.65
2023-01-11T19:37:08.159Z,6.66
2023-01-11T19:39:36.519Z,6.69
2023-01-11T19:42:05.151Z,6.74
2023-01-11T19:44:41.381Z,6.80
2023-01-11T19:47:18.608Z,6.71
2023-01-11T19:49:46.563Z,6.53
2023-01-11T19:52:21.712Z,6.38
2023-01-11T19:54:49.746Z,6.31
2023-01-11T19:57:20.711Z,6.33
2023-01-11T19:59:50.675Z,6.32
2023-01-11T20:02:22.027Z,6.33
2023-01-11T20:04:49.976Z,6.42
2023-01-11T20:07:20.947Z,6.44
2023-01-11T20:09:48.899Z,6.44
2023-01-11T20:12:16.645Z,6.49
2023-01-11T20:14:46.651Z,6.58
2023-01-11T20:17:21.334Z,6.65
2023-01-11T20:19:54.761Z,6.71
2023-01-11T20:22:24.705Z,6.76
2023-01-11T20:24:52.726Z,6.73
2023-01-11T20:27:20.501Z,6.78
2023-01-11T20:29:48.459Z,6.82
2023-01-11T20:32:39.291Z,6.81
2023-01-11T20:35:12.568Z,6.81
2023-01-11T20:37:43.541Z,6.84
2023-01-11T20:40:14.147Z,6.88
2023-01-11T20:42:43.138Z,6.81
2023-01-11T20:45:24.460Z,6.72
2023-01-11T20:48:20.684Z,6.63
2023-01-11T20:50:51.490Z,6.60
2023-01-11T20:53:19.190Z,6.59
2023-01-11T20:55:48.352Z,6.64
2023-01-11T20:58:15.855Z,6.66
2023-01-11T21:00:43.643Z,6.67
2023-01-11T21:03:11.125Z,6.72
2023-01-11T21:05:39.494Z,6.78
2023-01-11T21:08:06.989Z,6.68
2023-01-11T21:10:34.849Z,6.68
2023-01-11T21:13:03.900Z,6.66
2023-01-11T21:15:31.694Z,6.58
2023-01-11T21:17:59.308Z,6.63
2023-01-11T21:20:27.302Z,6.69
2023-01-11T21:22:55.385Z,6.69
2023-01-11T21:25:23.263Z,6.69
2023-01-11T21:27:50.818Z,6.77
2023-01-11T21:30:18.877Z,6.77
2023-01-11T21:32:46.423Z,6.76
2023-01-11T21:35:14.465Z,6.77
2023-01-11T21:37:42.070Z,6.80
2023-01-11T21:40:11.819Z,6.90
2023-01-11T21:42:39.287Z,7.00
2023-01-11T21:45:10.152Z,7.03
2023-01-11T21:47:39.852Z,7.09
2023-01-11T21:50:09.430Z,7.16
2023-01-11T21:52:36.998Z,7.23
2023-01-11T21:55:05.392Z,7.22
2023-01-11T21:57:32.941Z,7.19
2023-01-11T22:00:00.806Z,7.19
2023-01-11T22:02:28.527Z,7.14
2023-01-11T22:04:57.841Z,7.06
2023-01-11T22:07:28.997Z,7.02
2023-01-11T22:10:04.425Z,7.05
2023-01-11T22:12:33.993Z,7.10
2023-01-11T22:15:01.928Z,7.18
2023-01-11T22:17:29.435Z,7.24
2023-01-11T22:19:57.481Z,7.26
2023-01-11T22:22:25.519Z,7.25
2023-01-11T22:24:53.485Z,7.28
2023-01-11T22:27:21.067Z,7.30
2023-01-11T22:29:51.097Z,7.31
2023-01-11T22:32:19.293Z,7.29
2023-01-11T22:34:47.234Z,7.28
2023-01-11T22:37:14.684Z,7.30
2023-01-11T22:39:42.699Z,7.32
2023-01-11T22:42:10.228Z,7.34
2023-01-11T22:44:38.762Z,7.35
2023-01-11T22:47:06.451Z,7.36
2023-01-11T22:49:35.942Z,7.36
2023-01-11T22:52:04.621Z,7.35
2023-01-11T22:54:32.597Z,7.32
2023-01-11T22:57:00.055Z,7.35
2023-01-11T22:59:28.502Z,7.29
2023-01-11T23:01:56.183Z,7.25
2023-01-11T23:04:24.256Z,7.24
2023-01-11T23:06:53.644Z,7.21
2023-01-11T23:09:21.632Z,7.20
2023-01-11T23:12:07.844Z,7.20
2023-01-11T23:14:35.907Z,7.22
2023-01-11T23:17:08.454Z,7.21
2023-01-11T23:19:39.649Z,7.25
2023-01-11T23:22:09.905Z,7.23
2023-01-11T23:24:38.073Z,7.22
2023-01-11T23:27:06.281Z,7.23
2023-01-11T23:29:35.573Z,7.21
2023-01-11T23:32:03.551Z,7.18
2023-01-11T23:34:31.480Z,7.14
2023-01-11T23:36:59.410Z,7.07
2023-01-11T23:39:27.296Z,7.00
2023-01-11T23:42:13.653Z,6.93
2023-01-11T23:44:41.515Z,6.88
2023-01-11T23:47:29.937Z,6.82
2023-01-11T23:50:03.025Z,6.74
2023-01-11T23:52:32.387Z,6.70
2023-01-11T23:55:00.563Z,6.65
2023-01-11T23:57:28.216Z,6.63
2023-01-11T23:59:56.159Z,6.62
